Time;durP1;ratioP1;P1;durP2;ratioP2;P2;SDS_P1;SDS_P2;PMS_P1;PMS_P2;Temp;Humidity;BMP_temperature;BMP_pressure;BME280_temperature;BME280_humidity;BME280_pressure;Samples;Min_cycle;Max_cycle;Signal;HPM_P1;HPM_P2
2021/11/06 00:01:44;;;;;;;10.90;5.60;;;8.10;99.90;;;;;;5076597;28;20082;-84
2021/11/06 00:04:10;;;;;;;15.33;6.83;;;8.00;99.90;;;;;;5058540;28;20020;-83
2021/11/06 00:06:35;;;;;;;14.13;6.93;;;7.90;99.90;;;;;;5042502;28;20075;-84
2021/11/06 00:09:02;;;;;;;14.73;6.53;;;7.80;99.90;;;;;;5058579;28;20051;-84
2021/11/06 00:11:28;;;;;;;13.13;6.27;;;7.80;99.90;;;;;;5042254;28;20077;-84
2021/11/06 00:13:54;;;;;;;11.97;6.60;;;7.70;99.90;;;;;;5041964;28;20032;-83
2021/11/06 00:16:20;;;;;;;14.53;6.77;;;7.60;99.90;;;;;;5041993;28;20462;-84
2021/11/06 00:18:46;;;;;;;13.13;7.23;;;7.60;99.90;;;;;;5042159;28;20029;-83
2021/11/06 00:21:12;;;;;;;12.20;6.70;;;7.50;99.90;;;;;;5058110;28;20118;-85
2021/11/06 00:23:37;;;;;;;11.90;6.43;;;7.50;99.90;;;;;;5042207;28;20083;-84
2021/11/06 00:26:03;;;;;;;11.47;6.60;;;7.50;99.90;;;;;;5058668;28;20105;-85
2021/11/06 00:28:29;;;;;;;13.87;7.37;;;7.50;99.90;;;;;;5042019;28;20028;-84
2021/11/06 00:30:54;;;;;;;12.37;6.47;;;7.50;99.90;;;;;;5057686;28;20389;-84
2021/11/06 00:33:20;;;;;;;14.67;6.83;;;7.50;99.90;;;;;;5058510;28;20032;-84
2021/11/06 00:35:46;;;;;;;14.83;7.20;;;7.50;99.90;;;;;;5041240;28;20024;-84
2021/11/06 00:38:12;;;;;;;15.83;7.47;;;7.50;99.90;;;;;;5057892;28;20078;-83
2021/11/06 00:40:37;;;;;;;17.53;7.70;;;7.50;99.90;;;;;;5040633;28;20028;-84
2021/11/06 00:43:03;;;;;;;18.17;8.20;;;7.50;99.90;;;;;;5041220;28;20473;-83
2021/11/06 00:45:29;;;;;;;15.00;8.03;;;7.50;99.90;;;;;;5041027;28;20039;-84
2021/11/06 00:47:55;;;;;;;16.20;7.97;;;7.40;99.90;;;;;;5041378;28;20036;-84
2021/11/06 00:50:20;;;;;;;15.03;7.40;;;7.40;99.90;;;;;;5057984;28;20107;-84
2021/11/06 00:52:47;;;;;;;14.97;7.87;;;7.30;99.90;;;;;;5041411;28;20020;-84
2021/11/06 00:55:14;;;;;;;15.20;7.60;;;7.30;99.90;;;;;;5041713;28;20028;-85
2021/11/06 00:57:40;;;;;;;12.90;7.10;;;7.30;99.90;;;;;;5075468;28;20078;-85
2021/11/06 01:00:09;;;;;;;16.13;7.63;;;7.20;99.90;;;;;;5057262;28;20028;-84
2021/11/06 01:02:35;;;;;;;14.95;7.50;;;7.20;99.90;;;;;;5058646;28;20063;-83
2021/11/06 01:05:02;;;;;;;15.13;7.93;;;7.20;99.90;;;;;;5041862;28;20127;-84
2021/11/06 01:07:27;;;;;;;15.00;7.50;;;7.20;99.90;;;;;;5041312;28;20029;-84
2021/11/06 01:09:53;;;;;;;14.47;7.73;;;7.20;99.90;;;;;;5041041;28;20024;-84
2021/11/06 01:12:19;;;;;;;19.27;8.20;;;7.20;99.90;;;;;;5076438;28;20385;-84
2021/11/06 01:14:45;;;;;;;14.67;7.87;;;7.30;99.90;;;;;;5042035;28;20047;-83
2021/11/06 01:17:10;;;;;;;18.50;8.97;;;7.30;99.90;;;;;;5041380;28;20036;-85
2021/11/06 01:19:36;;;;;;;19.30;9.67;;;7.30;99.90;;;;;;5057451;28;20039;-85
2021/11/06 01:22:02;;;;;;;18.37;9.60;;;7.30;99.90;;;;;;5057969;28;20024;-85
2021/11/06 01:24:28;;;;;;;20.33;9.53;;;7.30;99.90;;;;;;5041822;28;20416;-84
2021/11/06 01:26:54;;;;;;;24.60;10.10;;;7.40;99.90;;;;;;5041415;28;20028;-84
2021/11/06 01:29:20;;;;;;;18.53;9.73;;;7.40;99.90;;;;;;5057512;28;20082;-85
2021/11/06 01:31:46;;;;;;;22.13;11.50;;;7.50;99.90;;;;;;5058223;28;20111;-84
2021/11/06 01:34:12;;;;;;;19.50;10.43;;;7.50;99.90;;;;;;5057628;28;20519;-84
2021/11/06 01:36:38;;;;;;;23.60;10.27;;;7.50;99.90;;;;;;5041380;28;20028;-85
2021/11/06 01:39:04;;;;;;;20.97;10.30;;;7.60;99.90;;;;;;5041135;28;20055;-84
2021/11/06 01:41:30;;;;;;;19.93;9.97;;;7.60;99.90;;;;;;5076262;28;20378;-84
2021/11/06 01:43:56;;;;;;;25.40;10.50;;;7.70;99.90;;;;;;5058351;28;20032;-84
2021/11/06 01:46:22;;;;;;;23.93;10.27;;;7.60;99.90;;;;;;5041283;28;20170;-83
2021/11/06 01:48:48;;;;;;;21.63;10.40;;;7.70;99.90;;;;;;5058229;28;20579;-84
2021/11/06 01:51:13;;;;;;;23.03;10.33;;;7.70;99.90;;;;;;5074227;28;20103;-84
2021/11/06 01:53:39;;;;;;;21.77;10.37;;;7.70;99.90;;;;;;5074491;28;20039;-85
2021/11/06 01:56:05;;;;;;;21.73;10.00;;;7.70;99.90;;;;;;5057430;28;20063;-84
2021/11/06 01:58:31;;;;;;;25.23;10.17;;;7.70;99.90;;;;;;5057867;28;20044;-85
2021/11/06 02:00:58;;;;;;;24.90;10.57;;;7.70;99.90;;;;;;5040396;28;20029;-85
2021/11/06 02:03:24;;;;;;;30.03;10.77;;;7.70;99.90;;;;;;5057654;28;20082;-84
2021/11/06 02:05:50;;;;;;;24.70;10.83;;;7.70;99.90;;;;;;5058320;28;20428;-84
2021/11/06 02:08:17;;;;;;;26.73;10.57;;;7.70;99.90;;;;;;5058144;28;20092;-83
2021/11/06 02:10:44;;;;;;;24.23;10.30;;;7.80;99.90;;;;;;5041895;28;20086;-84
2021/11/06 02:13:10;;;;;;;26.53;9.90;;;7.70;99.90;;;;;;5040870;28;20040;-83
2021/11/06 02:15:36;;;;;;;22.90;9.30;;;7.70;99.90;;;;;;5040756;28;20032;-84
2021/11/06 02:18:02;;;;;;;24.73;9.83;;;7.70;99.90;;;;;;5074161;28;20547;-83
2021/11/06 02:20:28;;;;;;;26.60;9.50;;;7.70;99.90;;;;;;5056566;28;20107;-83
2021/11/06 02:22:54;;;;;;;27.83;9.47;;;7.70;99.90;;;;;;5074030;28;20566;-85
2021/11/06 02:25:20;;;;;;;27.00;10.63;;;7.70;99.90;;;;;;5057327;28;20540;-84
2021/11/06 02:27:47;;;;;;;23.30;10.20;;;7.70;99.90;;;;;;5057634;28;20025;-84
2021/11/06 02:30:16;;;;;;;22.07;10.10;;;7.70;99.90;;;;;;5040902;28;20127;-85
2021/11/06 02:32:43;;;;;;;20.42;9.32;;;7.70;99.90;;;;;;5074722;28;20028;-85
2021/11/06 02:35:09;;;;;;;25.47;9.27;;;7.60;99.90;;;;;;5058059;28;20051;-84
2021/11/06 02:37:35;;;;;;;24.27;9.83;;;7.60;99.90;;;;;;5041593;28;20040;-83
2021/11/06 02:40:02;;;;;;;23.17;10.33;;;7.70;99.90;;;;;;5057691;28;20033;-84
2021/11/06 02:42:28;;;;;;;22.67;9.83;;;7.70;99.90;;;;;;5041336;28;20036;-84
2021/11/06 02:44:53;;;;;;;24.00;10.63;;;7.60;99.90;;;;;;5057822;28;20092;-85
2021/11/06 02:47:19;;;;;;;20.60;8.73;;;7.60;99.90;;;;;;5074754;28;20029;-84
2021/11/06 02:49:45;;;;;;;24.57;10.27;;;7.60;99.90;;;;;;5075542;28;20442;-83
2021/11/06 02:52:11;;;;;;;22.63;9.07;;;7.50;99.90;;;;;;5057615;28;20481;-83
2021/11/06 02:54:38;;;;;;;26.20;9.37;;;7.60;99.90;;;;;;5041811;28;20039;-84
2021/11/06 02:57:04;;;;;;;24.90;9.53;;;7.60;99.90;;;;;;5058439;28;20033;-85
2021/11/06 02:59:29;;;;;;;28.07;10.23;;;7.60;99.90;;;;;;5041170;28;20064;-84
2021/11/06 03:01:55;;;;;;;23.53;9.10;;;7.50;99.90;;;;;;5059110;28;20033;-85
2021/11/06 03:04:21;;;;;;;24.80;9.73;;;7.50;99.90;;;;;;5058841;28;20024;-83
2021/11/06 03:06:48;;;;;;;21.60;8.70;;;7.50;99.90;;;;;;5075519;28;20035;-84
2021/11/06 03:09:14;;;;;;;23.03;9.13;;;7.50;99.90;;;;;;5078994;28;20443;-84
2021/11/06 03:11:40;;;;;;;20.30;9.50;;;7.50;99.90;;;;;;5046686;28;20028;-83
2021/11/06 03:14:09;;;;;;;21.93;8.43;;;7.50;99.90;;;;;;5060392;28;20500;-84
2021/11/06 03:16:41;;;;;;;24.58;9.43;;;7.50;99.90;;;;;;5043807;28;20035;-84
2021/11/06 03:19:07;;;;;;;23.40;9.40;;;7.50;99.90;;;;;;5042858;28;20058;-84
2021/11/06 03:21:33;;;;;;;18.97;8.33;;;7.50;99.90;;;;;;5043316;28;20032;-84
2021/11/06 03:23:58;;;;;;;19.33;8.97;;;7.40;99.90;;;;;;5040811;28;20056;-84
2021/11/06 03:26:24;;;;;;;19.70;8.40;;;7.40;99.90;;;;;;5042129;28;20083;-84
2021/11/06 03:28:50;;;;;;;20.30;8.97;;;7.40;99.90;;;;;;5042047;28;20067;-83
2021/11/06 03:31:16;;;;;;;18.17;8.57;;;7.40;99.90;;;;;;5058631;28;20168;-83
2021/11/06 03:33:41;;;;;;;18.20;8.47;;;7.40;99.90;;;;;;5042617;28;20033;-84
2021/11/06 03:36:07;;;;;;;16.50;8.53;;;7.30;99.90;;;;;;5042408;28;20033;-84
2021/11/06 03:38:33;;;;;;;18.87;9.67;;;7.40;99.90;;;;;;5042371;28;20491;-84
2021/11/06 03:40:58;;;;;;;19.23;9.13;;;7.40;99.90;;;;;;5058511;28;20462;-84
2021/11/06 03:43:24;;;;;;;18.20;8.97;;;7.30;99.90;;;;;;5059454;28;20070;-83
2021/11/06 03:45:50;;;;;;;22.97;8.87;;;7.30;99.90;;;;;;5042431;28;20024;-83
2021/11/06 03:48:16;;;;;;;19.00;9.13;;;7.30;99.90;;;;;;5059616;28;20116;-83
2021/11/06 03:50:42;;;;;;;19.90;8.77;;;7.30;99.90;;;;;;5058557;28;20059;-84
2021/11/06 03:53:08;;;;;;;19.20;8.80;;;7.40;99.90;;;;;;5042443;28;20032;-83
2021/11/06 03:55:34;;;;;;;18.70;8.90;;;7.40;99.90;;;;;;5058954;28;20043;-84
2021/11/06 03:58:00;;;;;;;17.47;8.53;;;7.40;99.90;;;;;;5059174;28;20121;-84
2021/11/06 04:00:26;;;;;;;18.97;8.60;;;7.40;99.90;;;;;;5041491;28;20113;-83
2021/11/06 04:02:51;;;;;;;19.37;8.83;;;7.30;99.90;;;;;;5074985;28;20032;-84
2021/11/06 04:05:17;;;;;;;22.53;9.73;;;7.30;99.90;;;;;;5059102;28;20032;-84
2021/11/06 04:07:44;;;;;;;18.53;9.50;;;7.30;99.90;;;;;;5042386;28;20043;-85
2021/11/06 04:10:11;;;;;;;19.23;10.03;;;7.40;99.90;;;;;;5058183;28;20028;-84
2021/11/06 04:12:37;;;;;;;18.77;8.83;;;7.40;99.90;;;;;;5042372;28;20060;-83
2021/11/06 04:15:05;;;;;;;19.80;9.80;;;7.30;99.90;;;;;;5058642;28;20024;-83
2021/11/06 04:17:31;;;;;;;22.63;9.97;;;7.30;99.90;;;;;;5041824;28;20056;-84
2021/11/06 04:19:56;;;;;;;20.57;9.83;;;7.30;99.90;;;;;;5041274;28;20068;-83
2021/11/06 04:22:22;;;;;;;20.40;10.10;;;7.30;99.90;;;;;;5059445;28;20032;-83
2021/11/06 04:24:48;;;;;;;21.47;10.10;;;7.30;99.90;;;;;;5060847;28;20089;-83
2021/11/06 04:27:14;;;;;;;24.40;9.70;;;7.30;99.90;;;;;;5077999;28;20489;-84
2021/11/06 04:29:40;;;;;;;22.10;9.53;;;7.30;99.90;;;;;;5060199;28;20173;-84
2021/11/06 04:32:06;;;;;;;21.13;10.30;;;7.30;99.90;;;;;;5060046;28;20429;-83
2021/11/06 04:34:32;;;;;;;21.37;9.63;;;7.30;99.90;;;;;;5041384;28;20031;-85
2021/11/06 04:36:58;;;;;;;19.47;9.30;;;7.30;99.90;;;;;;5058504;28;20383;-84
2021/11/06 04:39:24;;;;;;;19.67;10.37;;;7.30;99.90;;;;;;5074724;28;20398;-84
2021/11/06 04:41:50;;;;;;;19.20;9.37;;;7.30;99.90;;;;;;5058633;28;20096;-83
2021/11/06 04:44:16;;;;;;;18.13;9.30;;;7.30;99.90;;;;;;5041355;28;20392;-83
2021/11/06 04:46:42;;;;;;;18.63;9.30;;;7.30;99.90;;;;;;5057999;28;20112;-83
2021/11/06 04:49:08;;;;;;;20.53;9.97;;;7.30;99.90;;;;;;5074032;28;20099;-83
2021/11/06 04:51:33;;;;;;;19.03;9.17;;;7.30;99.90;;;;;;5040831;28;20102;-83
2021/11/06 04:53:59;;;;;;;20.70;9.13;;;7.30;99.90;;;;;;5040763;28;20044;-85
2021/11/06 04:56:25;;;;;;;23.00;9.53;;;7.40;99.90;;;;;;5074177;28;20082;-84
2021/11/06 04:58:51;;;;;;;20.60;9.80;;;7.40;99.90;;;;;;5057092;28;20039;-84
2021/11/06 05:01:17;;;;;;;19.13;9.93;;;7.30;99.90;;;;;;5040152;28;20070;-85
2021/11/06 05:03:43;;;;;;;18.57;8.60;;;7.30;99.90;;;;;;5057111;28;20033;-84
2021/11/06 05:06:09;;;;;;;21.60;9.80;;;7.30;99.90;;;;;;5040609;28;20477;-85
2021/11/06 05:08:35;;;;;;;18.47;8.57;;;7.30;99.90;;;;;;5040711;28;20031;-83
2021/11/06 05:11:00;;;;;;;19.43;9.30;;;7.30;99.90;;;;;;5039339;28;20464;-84
2021/11/06 05:13:26;;;;;;;18.33;8.13;;;7.30;99.90;;;;;;5072773;28;20024;-83
2021/11/06 05:15:52;;;;;;;14.03;7.83;;;7.20;99.90;;;;;;5039473;28;20033;-83
2021/11/06 05:18:19;;;;;;;15.97;8.57;;;7.20;99.90;;;;;;5056687;28;20035;-83
2021/11/06 05:20:45;;;;;;;16.80;7.87;;;7.20;99.90;;;;;;5039471;28;20028;-84
2021/11/06 05:23:13;;;;;;;15.83;7.80;;;7.30;99.90;;;;;;5039679;28;20111;-84
2021/11/06 05:25:40;;;;;;;16.50;7.87;;;7.20;99.90;;;;;;5072982;28;20067;-85
2021/11/06 05:28:06;;;;;;;19.90;8.03;;;7.20;99.90;;;;;;5040019;28;20080;-84
2021/11/06 05:30:32;;;;;;;14.40;7.63;;;7.20;99.90;;;;;;5039246;28;20016;-83
2021/11/06 05:32:58;;;;;;;16.17;8.10;;;7.20;99.90;;;;;;5039244;28;20109;-84
2021/11/06 05:35:24;;;;;;;13.53;7.27;;;7.20;99.90;;;;;;5075053;28;20028;-84
2021/11/06 05:37:50;;;;;;;15.30;7.53;;;7.20;99.90;;;;;;5040542;28;20039;-84
2021/11/06 05:40:16;;;;;;;16.13;7.07;;;7.20;99.90;;;;;;5039666;28;20050;-84
2021/11/06 05:42:41;;;;;;;16.10;7.43;;;7.20;99.90;;;;;;5040829;28;20028;-85
2021/11/06 05:45:08;;;;;;;18.20;7.23;;;7.20;99.90;;;;;;5040737;28;20032;-84
2021/11/06 05:47:35;;;;;;;16.17;8.07;;;7.20;99.90;;;;;;5041293;28;20021;-85
2021/11/06 05:50:01;;;;;;;14.13;7.30;;;7.20;99.90;;;;;;5056893;28;20531;-84
2021/11/06 05:52:27;;;;;;;14.80;7.40;;;7.30;99.90;;;;;;5040912;28;20029;-84
2021/11/06 05:54:52;;;;;;;15.57;7.77;;;7.20;99.90;;;;;;5040445;28;20106;-84
2021/11/06 05:57:18;;;;;;;12.40;6.80;;;7.20;99.90;;;;;;5056775;28;20024;-84
2021/11/06 05:59:44;;;;;;;13.40;7.27;;;7.20;99.90;;;;;;5073444;28;20025;-84
2021/11/06 06:02:10;;;;;;;13.73;7.37;;;7.20;99.90;;;;;;5073528;28;20027;-84
2021/11/06 06:04:35;;;;;;;15.80;7.27;;;7.10;99.90;;;;;;5075051;28;20385;-84
2021/11/06 06:07:03;;;;;;;19.80;8.07;;;7.10;99.90;;;;;;5076934;28;20024;-84
2021/11/06 06:09:28;;;;;;;15.63;8.03;;;7.20;99.90;;;;;;5043641;28;20071;-85
2021/11/06 06:11:54;;;;;;;16.37;7.57;;;7.20;99.90;;;;;;5060258;28;20029;-84
2021/11/06 06:14:20;;;;;;;15.67;7.87;;;7.20;99.90;;;;;;5056261;28;20031;-83
2021/11/06 06:16:45;;;;;;;19.27;8.40;;;7.20;99.90;;;;;;5056683;28;20496;-83
2021/11/06 06:19:11;;;;;;;16.47;8.80;;;7.20;99.90;;;;;;5040816;28;20044;-84
2021/11/06 06:21:37;;;;;;;15.63;8.33;;;7.20;99.90;;;;;;5041255;28;20078;-84
2021/11/06 06:24:03;;;;;;;17.33;8.73;;;7.20;99.90;;;;;;5075663;28;20032;-83
2021/11/06 06:26:29;;;;;;;19.23;8.83;;;7.20;99.90;;;;;;5041267;28;20031;-84
2021/11/06 06:28:55;;;;;;;15.17;8.90;;;7.20;99.90;;;;;;5040657;28;20028;-84
2021/11/06 06:31:21;;;;;;;13.43;8.30;;;7.30;99.90;;;;;;5040651;28;20114;-84
2021/11/06 06:33:46;;;;;;;16.33;8.57;;;7.30;99.90;;;;;;5057263;28;20031;-84
2021/11/06 06:36:12;;;;;;;16.73;8.73;;;7.30;99.90;;;;;;5074616;28;20028;-83
2021/11/06 06:38:38;;;;;;;20.43;9.50;;;7.30;99.90;;;;;;5039601;28;20051;-84
2021/11/06 06:41:04;;;;;;;17.77;8.33;;;7.30;99.90;;;;;;5056164;28;20039;-83
2021/11/06 06:43:30;;;;;;;18.87;8.43;;;7.30;99.90;;;;;;5059604;28;20024;-84
2021/11/06 06:45:56;;;;;;;20.43;9.00;;;7.30;99.90;;;;;;5044879;28;20032;-84
2021/11/06 06:48:22;;;;;;;19.17;8.27;;;7.30;99.90;;;;;;5062335;28;20085;-84
2021/11/06 06:50:49;;;;;;;18.73;8.37;;;7.30;99.90;;;;;;5044962;28;20067;-84
2021/11/06 06:53:16;;;;;;;18.97;9.00;;;7.30;99.90;;;;;;5080250;28;20543;-85
2021/11/06 06:55:43;;;;;;;21.67;9.03;;;7.40;99.90;;;;;;5044577;28;20186;-84
2021/11/06 06:58:09;;;;;;;17.63;8.73;;;7.40;99.90;;;;;;5079836;28;20392;-84
2021/11/06 07:00:36;;;;;;;27.67;9.20;;;7.40;99.90;;;;;;5043733;28;20397;-84
2021/11/06 07:03:02;;;;;;;22.27;9.10;;;7.40;99.90;;;;;;5078286;28;20033;-83
2021/11/06 07:05:28;;;;;;;18.27;8.37;;;7.30;99.90;;;;;;5044502;28;20032;-84
2021/11/06 07:07:56;;;;;;;18.10;8.60;;;7.40;99.90;;;;;;5044057;28;20024;-84
2021/11/06 07:10:22;;;;;;;17.43;8.60;;;7.40;99.90;;;;;;5060255;28;20052;-85
2021/11/06 07:12:48;;;;;;;22.67;8.40;;;7.40;99.90;;;;;;5043351;28;20520;-84
2021/11/06 07:15:14;;;;;;;20.50;9.03;;;7.40;99.90;;;;;;5044362;28;20481;-83
2021/11/06 07:17:41;;;;;;;20.50;8.70;;;7.40;99.90;;;;;;5078751;28;20035;-83
2021/11/06 07:20:08;;;;;;;20.43;9.83;;;7.40;99.90;;;;;;5043293;28;20122;-84
2021/11/06 07:22:35;;;;;;;16.80;8.60;;;7.50;99.90;;;;;;5078459;28;20043;-83
2021/11/06 07:25:01;;;;;;;14.87;8.60;;;7.50;99.90;;;;;;5043268;28;20037;-83
2021/11/06 07:27:27;;;;;;;20.80;8.90;;;7.50;99.90;;;;;;5043690;28;20024;-83
2021/11/06 07:29:53;;;;;;;17.03;8.30;;;7.50;99.90;;;;;;5059760;28;20115;-83
2021/11/06 07:32:18;;;;;;;20.17;9.03;;;7.50;99.90;;;;;;5059825;28;20579;-83
2021/11/06 07:34:44;;;;;;;20.27;8.80;;;7.60;99.90;;;;;;5076983;28;20059;-84
2021/11/06 07:37:10;;;;;;;18.77;9.23;;;7.60;99.90;;;;;;5059564;28;20043;-84
2021/11/06 07:39:36;;;;;;;17.67;9.20;;;7.60;99.90;;;;;;5042707;28;20032;-83
2021/11/06 07:42:02;;;;;;;20.37;9.77;;;7.60;99.90;;;;;;5078160;28;20428;-84
2021/11/06 07:44:28;;;;;;;17.47;8.90;;;7.60;99.90;;;;;;5043678;28;20051;-84
2021/11/06 07:46:53;;;;;;;20.57;10.03;;;7.60;99.90;;;;;;5043667;28;20111;-84
2021/11/06 07:49:19;;;;;;;18.93;8.90;;;7.70;99.90;;;;;;5078966;28;20021;-83
2021/11/06 07:51:45;;;;;;;20.23;9.07;;;7.70;99.90;;;;;;5078426;28;20028;-84
2021/11/06 07:54:11;;;;;;;18.00;9.03;;;7.60;99.90;;;;;;5042910;28;20064;-84
2021/11/06 07:56:38;;;;;;;17.70;8.93;;;7.70;99.90;;;;;;5060519;28;20543;-83
2021/11/06 07:59:05;;;;;;;19.30;8.87;;;7.70;99.90;;;;;;5043329;28;20146;-84
2021/11/06 08:01:31;;;;;;;21.63;9.40;;;7.70;99.90;;;;;;5043438;28;20028;-83
2021/11/06 08:03:57;;;;;;;19.13;8.90;;;7.70;99.90;;;;;;5043024;28;20052;-83
2021/11/06 08:06:24;;;;;;;18.60;9.70;;;7.70;99.90;;;;;;5060431;28;20029;-83
2021/11/06 08:08:50;;;;;;;19.17;9.17;;;7.80;99.90;;;;;;5076599;28;20024;-83
2021/11/06 08:11:15;;;;;;;17.37;9.13;;;7.70;99.90;;;;;;5077136;28;20188;-84
2021/11/06 08:13:42;;;;;;;20.10;9.27;;;7.80;99.90;;;;;;5044010;28;20039;-83
2021/11/06 08:16:08;;;;;;;20.63;8.60;;;7.80;99.90;;;;;;5076969;28;20469;-83
2021/11/06 08:18:33;;;;;;;17.03;8.50;;;7.80;99.90;;;;;;5078710;28;20020;-84
2021/11/06 08:20:59;;;;;;;15.93;7.90;;;7.80;99.90;;;;;;5043003;28;20124;-83
2021/11/06 08:23:25;;;;;;;19.17;9.37;;;7.80;99.90;;;;;;5077202;28;20036;-84
2021/11/06 08:25:51;;;;;;;17.30;8.83;;;7.90;99.90;;;;;;5044021;28;20033;-84
2021/11/06 08:28:17;;;;;;;17.23;7.53;;;7.90;99.90;;;;;;5061069;28;20107;-84
2021/11/06 08:30:43;;;;;;;15.23;8.60;;;8.00;99.90;;;;;;5059906;28;20025;-84
2021/11/06 08:33:10;;;;;;;16.13;8.27;;;8.00;99.90;;;;;;5059921;28;20542;-84
2021/11/06 08:35:37;;;;;;;16.07;8.90;;;7.90;99.90;;;;;;5059642;28;20477;-83
2021/11/06 08:38:03;;;;;;;17.40;8.27;;;8.00;99.90;;;;;;5077170;28;20469;-84
2021/11/06 08:40:29;;;;;;;25.17;9.33;;;8.00;99.90;;;;;;5043518;28;20070;-83
2021/11/06 08:42:55;;;;;;;17.67;8.20;;;8.10;99.90;;;;;;5043869;28;20397;-84
2021/11/06 08:45:22;;;;;;;15.73;8.07;;;8.10;99.90;;;;;;5043584;28;20374;-84
2021/11/06 08:47:48;;;;;;;16.37;7.93;;;8.10;99.90;;;;;;5079393;28;20032;-84
2021/11/06 08:50:18;;;;;;;16.27;7.87;;;8.20;99.90;;;;;;5043926;28;20178;-83
2021/11/06 08:52:45;;;;;;;15.82;7.95;;;8.20;99.90;;;;;;5077366;28;20078;-83
2021/11/06 08:55:11;;;;;;;25.07;7.70;;;8.20;99.90;;;;;;5060459;28;20038;-83
2021/11/06 08:57:39;;;;;;;21.57;8.50;;;8.20;99.90;;;;;;5061094;28;20058;-84
2021/11/06 09:00:09;;;;;;;15.87;7.23;;;8.30;99.90;;;;;;5044272;28;20479;-84
2021/11/06 09:02:36;;;;;;;16.83;7.60;;;8.30;99.90;;;;;;5044508;28;20036;-84
2021/11/06 09:05:03;;;;;;;15.77;7.17;;;8.30;99.90;;;;;;5060806;28;20027;-84
2021/11/06 09:07:32;;;;;;;16.83;7.80;;;8.30;99.90;;;;;;5061088;28;20063;-84
2021/11/06 09:09:59;;;;;;;14.38;7.05;;;8.30;99.90;;;;;;5044974;28;20033;-84
2021/11/06 09:12:26;;;;;;;13.43;7.20;;;8.30;99.90;;;;;;5061670;28;20055;-84
2021/11/06 09:14:52;;;;;;;13.00;6.90;;;8.30;99.90;;;;;;5060590;28;20127;-84
2021/11/06 09:17:18;;;;;;;13.87;7.43;;;8.40;99.90;;;;;;5043547;28;20117;-85
2021/11/06 09:19:44;;;;;;;13.20;6.20;;;8.30;99.90;;;;;;5043739;28;20082;-84
2021/11/06 09:22:10;;;;;;;12.53;6.80;;;8.30;99.90;;;;;;5061072;28;20552;-84
2021/11/06 09:24:36;;;;;;;13.90;6.83;;;8.40;99.90;;;;;;5077686;28;20039;-84
2021/11/06 09:27:02;;;;;;;12.63;7.00;;;8.40;99.90;;;;;;5061109;28;20030;-84
2021/11/06 09:29:28;;;;;;;17.03;7.00;;;8.40;99.90;;;;;;5060576;28;20028;-84
2021/11/06 09:31:54;;;;;;;21.87;6.97;;;8.40;99.90;;;;;;5079101;28;20021;-85
2021/11/06 09:34:19;;;;;;;27.50;9.10;;;8.50;99.90;;;;;;5061531;28;20147;-84
2021/11/06 09:36:45;;;;;;;21.17;7.47;;;8.50;99.90;;;;;;5078818;28;20035;-84
2021/11/06 09:39:11;;;;;;;12.93;6.17;;;8.60;99.90;;;;;;5077957;28;20040;-84
2021/11/06 09:41:38;;;;;;;11.47;6.10;;;8.60;99.90;;;;;;5061013;28;20056;-84
2021/11/06 09:44:04;;;;;;;9.67;5.70;;;8.60;99.90;;;;;;5044322;28;20036;-84
2021/11/06 09:46:30;;;;;;;10.10;5.67;;;8.60;99.90;;;;;;5044750;28;20086;-84
2021/11/06 09:48:56;;;;;;;12.30;5.90;;;8.70;99.90;;;;;;5078978;28;20025;-85
2021/11/06 09:51:22;;;;;;;11.27;6.23;;;8.70;99.90;;;;;;5061773;28;20024;-83
2021/11/06 09:53:50;;;;;;;11.97;6.13;;;8.70;99.90;;;;;;5045061;28;20107;-85
2021/11/06 09:56:19;;;;;;;12.83;5.20;;;8.80;99.90;;;;;;5045231;28;20035;-84
2021/11/06 09:58:46;;;;;;;9.57;5.20;;;8.80;99.90;;;;;;5061781;28;20065;-84
2021/11/06 10:01:12;;;;;;;12.13;5.20;;;8.80;99.90;;;;;;5077564;28;20271;-84
2021/11/06 10:03:39;;;;;;;10.50;5.53;;;8.90;99.90;;;;;;5040152;28;20029;-83
2021/11/06 10:06:21;;;;;;;11.30;5.30;;;8.90;99.90;;;;;;5056781;28;20417;-83
2021/11/06 10:08:48;;;;;;;15.67;5.50;;;8.90;99.90;;;;;;5056748;28;20039;-84
2021/11/06 10:11:16;;;;;;;11.70;5.57;;;9.00;99.90;;;;;;5057154;28;20032;-84
2021/11/06 10:13:51;;;;;;;11.60;5.40;;;9.00;99.90;;;;;;5075105;28;20436;-84
2021/11/06 10:16:43;;;;;;;11.77;5.63;;;9.00;99.90;;;;;;5056915;28;20054;-85
2021/11/06 10:19:24;;;;;;;17.60;6.77;;;9.00;99.90;;;;;;5056681;28;20047;-83
2021/11/06 10:22:10;;;;;;;11.57;5.90;;;9.10;99.90;;;;;;5057316;28;20039;-83
2021/11/06 10:24:52;;;;;;;10.77;5.60;;;9.10;99.90;;;;;;5039783;28;20032;-83
2021/11/06 10:27:30;;;;;;;11.17;6.10;;;9.20;99.90;;;;;;5056912;28;20042;-83
2021/11/06 10:30:02;;;;;;;10.50;4.67;;;9.20;99.90;;;;;;5056626;28;20496;-84
2021/11/06 10:32:28;;;;;;;9.43;4.30;;;9.30;99.90;;;;;;5072824;28;20071;-83
2021/11/06 10:34:54;;;;;;;7.53;4.43;;;9.20;99.90;;;;;;5058451;28;20017;-84
2021/11/06 10:37:20;;;;;;;8.97;4.23;;;9.30;99.90;;;;;;5073638;28;20028;-85
2021/11/06 10:39:59;;;;;;;10.60;4.50;;;9.40;99.90;;;;;;5072834;28;20032;-84
2021/11/06 10:42:27;;;;;;;13.30;4.60;;;9.50;99.90;;;;;;5056557;28;20064;-84
2021/11/06 10:45:14;;;;;;;11.47;4.73;;;9.50;99.90;;;;;;5039635;28;20490;-84
2021/11/06 10:48:05;;;;;;;8.73;4.07;;;9.60;99.90;;;;;;5074448;28;20389;-84
2021/11/06 10:50:42;;;;;;;17.70;5.63;;;9.60;99.90;;;;;;5055676;28;20025;-83
2021/11/06 10:53:09;;;;;;;10.17;4.40;;;9.70;99.90;;;;;;5072711;28;20056;-84
2021/11/06 10:55:42;;;;;;;9.37;3.80;;;9.70;99.90;;;;;;5039325;28;20060;-84
2021/11/06 10:58:29;;;;;;;9.80;3.80;;;9.80;99.90;;;;;;5056593;28;20036;-84
2021/11/06 11:00:58;;;;;;;8.23;3.90;;;9.80;99.90;;;;;;5055392;28;20033;-84
2021/11/06 11:03:32;;;;;;;6.65;4.03;;;9.90;99.90;;;;;;5039708;28;20393;-84
2021/11/06 11:06:00;;;;;;;7.33;3.60;;;9.90;99.90;;;;;;5072691;28;20568;-84
2021/11/06 11:08:28;;;;;;;7.60;3.53;;;9.90;99.90;;;;;;5056823;28;20021;-84
2021/11/06 11:11:07;;;;;;;8.67;3.80;;;9.90;99.90;;;;;;5055550;28;20032;-84
2021/11/06 11:13:34;;;;;;;6.68;4.20;;;9.90;99.90;;;;;;5073213;28;20510;-84
2021/11/06 11:16:17;;;;;;;5.10;3.40;;;9.90;99.90;;;;;;5056372;28;20041;-86
2021/11/06 11:18:49;;;;;;;8.23;3.63;;;9.90;99.90;;;;;;5039837;28;20036;-84
2021/11/06 11:21:32;;;;;;;7.00;3.50;;;10.00;99.90;;;;;;5023233;28;20062;-84
2021/11/06 11:24:17;;;;;;;7.00;3.27;;;10.00;99.90;;;;;;5074352;28;20391;-84
2021/11/06 11:26:48;;;;;;;10.77;3.70;;;10.00;99.90;;;;;;5074024;28;20082;-85
2021/11/06 11:29:20;;;;;;;9.73;3.73;;;10.10;99.90;;;;;;5058416;28;20032;-84
2021/11/06 11:31:50;;;;;;;8.03;3.80;;;10.20;99.90;;;;;;5060622;28;20090;-85
2021/11/06 11:34:16;;;;;;;6.10;3.30;;;10.20;99.90;;;;;;5078307;28;20028;-84
2021/11/06 11:36:43;;;;;;;9.20;3.50;;;10.20;99.90;;;;;;5063515;28;20530;-85
2021/11/06 11:39:13;;;;;;;16.50;4.07;;;10.20;99.90;;;;;;5046183;28;20067;-84
2021/11/06 11:41:46;;;;;;;11.07;4.13;;;10.20;99.90;;;;;;5080549;28;20404;-84
2021/11/06 11:44:47;;;;;;;10.70;3.37;;;10.30;99.90;;;;;;5060567;28;20405;-84
2021/11/06 11:47:36;;;;;;;7.17;3.30;;;10.30;99.90;;;;;;5060208;28;20439;-86
2021/11/06 11:50:05;;;;;;;6.13;3.28;;;10.30;99.90;;;;;;5043043;28;20029;-85
2021/11/06 11:52:37;;;;;;;6.17;3.40;;;10.30;99.90;;;;;;5076692;28;20035;-85
2021/11/06 11:55:08;;;;;;;6.50;3.00;;;10.30;99.90;;;;;;5077278;28;20039;-85
2021/11/06 11:57:40;;;;;;;7.37;3.27;;;10.30;99.90;;;;;;5060193;28;20036;-85
2021/11/06 12:00:17;;;;;;;7.03;3.63;;;10.30;99.90;;;;;;5059254;28;20059;-84
2021/11/06 12:02:53;;;;;;;5.73;3.07;;;10.30;99.90;;;;;;5059093;28;20051;-85
2021/11/06 12:05:46;;;;;;;7.07;3.40;;;10.40;99.90;;;;;;5059790;28;20043;-85
2021/11/06 12:08:13;;;;;;;7.60;3.10;;;10.40;99.90;;;;;;5060185;28;20028;-85
2021/11/06 12:10:55;;;;;;;4.87;2.87;;;10.40;99.90;;;;;;5076398;28;20516;-86
2021/11/06 12:13:28;;;;;;;6.67;3.27;;;10.40;99.90;;;;;;5077672;28;20035;-85
2021/11/06 12:16:19;;;;;;;9.07;4.00;;;10.40;99.90;;;;;;5058983;28;20036;-84
2021/11/06 12:18:52;;;;;;;7.53;3.47;;;10.40;99.90;;;;;;5043270;28;20036;-86
2021/11/06 12:21:42;;;;;;;6.57;3.20;;;10.40;99.90;;;;;;5059857;28;20056;-84
2021/11/06 12:24:11;;;;;;;7.60;3.00;;;10.40;99.90;;;;;;5042801;28;20036;-84
2021/11/06 12:26:48;;;;;;;7.80;2.90;;;10.40;99.90;;;;;;5075958;28;20020;-86
2021/11/06 12:29:19;;;;;;;7.77;2.67;;;10.50;99.90;;;;;;5075659;28;20043;-84
2021/11/06 12:31:48;;;;;;;8.27;2.40;;;10.50;99.90;;;;;;5076979;28;20031;-84
2021/11/06 12:34:43;;;;;;;4.53;2.63;;;10.50;99.90;;;;;;5042977;28;20406;-85
2021/11/06 12:37:12;;;;;;;4.53;2.00;;;10.50;99.90;;;;;;5042747;28;20047;-85
2021/11/06 12:39:45;;;;;;;4.18;2.10;;;10.50;99.90;;;;;;5057733;28;20033;-86
2021/11/06 12:42:21;;;;;;;3.50;1.93;;;10.50;99.90;;;;;;5059333;28;20032;-86
2021/11/06 12:45:00;;;;;;;7.57;2.10;;;10.60;99.90;;;;;;5042253;28;20064;-85
2021/11/06 12:47:28;;;;;;;5.10;2.00;;;10.60;99.90;;;;;;5075961;28;20067;-85
2021/11/06 12:49:55;;;;;;;6.25;2.60;;;10.60;99.90;;;;;;5058021;28;20489;-86